Time;durP1;ratioP1;P1;durP2;ratioP2;P2;SDS_P1;SDS_P2;PMS_P1;PMS_P2;Temp;Humidity;BMP_temperature;BMP_pressure;BME280_temperature;BME280_humidity;BME280_pressure;Samples;Min_cycle;Max_cycle;Signal;HPM_P1;HPM_P2
2022/10/28 00:01:47;;;;;;;2.43;2.33;;;;;;;;;;4931682;29;20215;-68
2022/10/28 00:04:14;;;;;;;3.70;2.90;;;;;;;;;;4930977;29;20204;-68
2022/10/28 00:06:41;;;;;;;4.20;2.20;;;;;;;;;;4930776;29;20223;-68
2022/10/28 00:09:08;;;;;;;4.37;2.40;;;;;;;;;;4930258;29;20254;-68
2022/10/28 00:11:37;;;;;;;2.93;2.37;;;;;;;;;;4930913;29;20634;-68
2022/10/28 00:14:05;;;;;;;6.53;1.90;;;;;;;;;;4930464;29;20701;-68
2022/10/28 00:16:33;;;;;;;1.97;1.80;;;;;;;;;;4930346;29;20216;-68
2022/10/28 00:19:01;;;;;;;3.70;1.93;;;;;;;;;;4931568;29;20208;-68
2022/10/28 00:21:30;;;;;;;2.03;1.93;;;;;;;;;;4930125;29;20676;-68
2022/10/28 00:23:57;;;;;;;2.47;1.60;;;;;;;;;;4932229;29;20247;-69
2022/10/28 00:26:26;;;;;;;3.90;1.85;;;;;;;;;;4931661;29;20207;-68
2022/10/28 00:28:55;;;;;;;2.47;2.07;;;;;;;;;;4929891;29;20231;-68
2022/10/28 00:31:23;;;;;;;2.70;2.50;;;;;;;;;;4930267;29;20593;-68
2022/10/28 00:33:51;;;;;;;5.03;2.70;;;;;;;;;;4932326;29;20685;-69
2022/10/28 00:36:19;;;;;;;4.47;1.93;;;;;;;;;;4930103;29;20215;-69
2022/10/28 00:38:47;;;;;;;2.43;2.30;;;;;;;;;;4928491;29;20214;-69
2022/10/28 00:41:15;;;;;;;2.37;2.00;;;;;;;;;;4929793;29;20216;-68
2022/10/28 00:43:43;;;;;;;8.80;1.87;;;;;;;;;;4930496;29;20329;-68
2022/10/28 00:46:17;;;;;;;2.17;2.08;;;;;;;;;;4928127;29;20219;-69
2022/10/28 00:48:45;;;;;;;2.90;2.00;;;;;;;;;;4929561;29;20208;-68
2022/10/28 00:51:13;;;;;;;1.80;1.70;;;;;;;;;;4931562;29;20204;-69
2022/10/28 00:53:40;;;;;;;2.03;1.90;;;;;;;;;;4927810;29;20255;-69
2022/10/28 00:56:07;;;;;;;2.30;2.10;;;;;;;;;;4931339;29;20251;-68
2022/10/28 00:58:35;;;;;;;1.47;1.43;;;;;;;;;;4931610;29;20242;-68
2022/10/28 01:01:02;;;;;;;2.37;2.13;;;;;;;;;;4930229;29;20219;-69
2022/10/28 01:03:30;;;;;;;4.17;2.10;;;;;;;;;;4931665;29;20200;-68
2022/10/28 01:05:58;;;;;;;2.57;2.37;;;;;;;;;;4931293;29;20219;-68
2022/10/28 01:08:25;;;;;;;2.23;2.13;;;;;;;;;;4929932;29;20200;-68
2022/10/28 01:11:02;;;;;;;3.20;2.03;;;;;;;;;;4931485;29;20228;-68
2022/10/28 01:13:34;;;;;;;5.63;2.13;;;;;;;;;;4929999;29;20226;-68
2022/10/28 01:16:05;;;;;;;1.93;1.80;;;;;;;;;;4931932;29;20301;-69
2022/10/28 01:18:38;;;;;;;2.33;2.23;;;;;;;;;;4929616;29;20212;-68
2022/10/28 01:21:32;;;;;;;2.10;2.00;;;;;;;;;;4929384;29;20215;-68
2022/10/28 01:24:04;;;;;;;2.70;2.50;;;;;;;;;;4908096;29;20211;-69
2022/10/28 01:26:41;;;;;;;2.37;2.17;;;;;;;;;;4931137;29;20216;-68
2022/10/28 01:29:22;;;;;;;2.27;1.97;;;;;;;;;;4930859;29;20227;-68
2022/10/28 01:31:53;;;;;;;2.00;1.90;;;;;;;;;;4927708;29;20203;-68
2022/10/28 01:34:24;;;;;;;3.33;2.27;;;;;;;;;;4931021;29;20215;-69
2022/10/28 01:36:56;;;;;;;3.93;2.20;;;;;;;;;;4930916;29;20224;-68
2022/10/28 01:39:26;;;;;;;2.27;2.13;;;;;;;;;;4930910;29;20203;-68
2022/10/28 01:41:55;;;;;;;3.63;2.60;;;;;;;;;;4930828;29;20212;-68
2022/10/28 01:44:27;;;;;;;3.33;2.60;;;;;;;;;;4928606;29;20250;-68
2022/10/28 01:46:58;;;;;;;3.07;2.77;;;;;;;;;;4929391;29;20218;-69
2022/10/28 01:49:28;;;;;;;2.80;2.57;;;;;;;;;;4928937;29;20230;-69
2022/10/28 01:51:56;;;;;;;2.43;2.23;;;;;;;;;;4930513;29;20211;-68
2022/10/28 01:54:26;;;;;;;5.77;3.77;;;;;;;;;;4928998;29;20230;-68
2022/10/28 01:56:54;;;;;;;4.40;3.57;;;;;;;;;;4930396;29;20240;-68
2022/10/28 01:59:23;;;;;;;4.83;2.57;;;;;;;;;;4930925;29;20684;-68
2022/10/28 02:01:50;;;;;;;3.37;3.07;;;;;;;;;;4931588;29;20239;-68
2022/10/28 02:04:18;;;;;;;3.43;3.10;;;;;;;;;;4931403;29;20234;-68
2022/10/28 02:06:47;;;;;;;7.57;2.63;;;;;;;;;;4931591;29;20690;-68
2022/10/28 02:09:18;;;;;;;2.67;2.47;;;;;;;;;;4931595;29;20232;-69
2022/10/28 02:12:01;;;;;;;5.13;2.90;;;;;;;;;;4931809;29;20219;-68
2022/10/28 02:14:37;;;;;;;4.20;2.80;;;;;;;;;;4931576;29;20573;-68
2022/10/28 02:17:10;;;;;;;5.90;3.13;;;;;;;;;;4931670;29;20218;-68
2022/10/28 02:19:39;;;;;;;2.83;2.50;;;;;;;;;;4929782;29;20234;-68
2022/10/28 02:22:14;;;;;;;4.40;3.57;;;;;;;;;;4913998;29;20206;-68
2022/10/28 02:24:45;;;;;;;4.10;3.23;;;;;;;;;;4928774;29;20681;-68
2022/10/28 02:27:16;;;;;;;4.63;3.53;;;;;;;;;;4916406;29;20206;-68
2022/10/28 02:29:47;;;;;;;8.40;3.67;;;;;;;;;;4928662;29;20399;-67
2022/10/28 02:32:16;;;;;;;5.23;3.47;;;;;;;;;;4927438;29;20211;-67
2022/10/28 02:34:47;;;;;;;7.90;3.67;;;;;;;;;;4929031;29;20218;-68
2022/10/28 02:37:16;;;;;;;4.33;3.47;;;;;;;;;;4931221;29;20211;-68
2022/10/28 02:39:46;;;;;;;4.30;3.37;;;;;;;;;;4930476;29;20533;-68
2022/10/28 02:42:15;;;;;;;3.97;3.07;;;;;;;;;;4931092;29;20218;-68
2022/10/28 02:44:44;;;;;;;5.23;3.27;;;;;;;;;;4934467;29;20654;-68
2022/10/28 02:47:13;;;;;;;7.83;3.03;;;;;;;;;;4933100;29;20234;-69
2022/10/28 02:49:43;;;;;;;4.37;2.60;;;;;;;;;;4932092;29;20227;-68
2022/10/28 02:52:12;;;;;;;6.00;3.07;;;;;;;;;;4934278;29;20238;-68
2022/10/28 02:54:40;;;;;;;3.27;3.00;;;;;;;;;;4933471;29;20231;-68
2022/10/28 02:57:09;;;;;;;3.37;2.70;;;;;;;;;;4931419;29;20359;-68
2022/10/28 02:59:36;;;;;;;4.30;3.37;;;;;;;;;;4933153;29;20219;-68
2022/10/28 03:02:04;;;;;;;4.20;2.97;;;;;;;;;;4933811;29;20211;-68
2022/10/28 03:04:31;;;;;;;5.57;3.00;;;;;;;;;;4932108;29;20208;-68
2022/10/28 03:06:58;;;;;;;3.10;2.40;;;;;;;;;;4933426;29;20234;-69
2022/10/28 03:09:26;;;;;;;2.63;2.43;;;;;;;;;;4933523;29;20204;-68
2022/10/28 03:11:53;;;;;;;2.43;2.23;;;;;;;;;;4931670;29;20332;-69
2022/10/28 03:14:20;;;;;;;2.83;2.17;;;;;;;;;;4932088;29;20213;-68
2022/10/28 03:16:47;;;;;;;2.43;2.23;;;;;;;;;;4933192;29;20605;-68
2022/10/28 03:19:14;;;;;;;2.87;2.67;;;;;;;;;;4920984;29;20208;-69
2022/10/28 03:21:42;;;;;;;2.67;2.47;;;;;;;;;;4922625;29;20212;-69
2022/10/28 03:24:09;;;;;;;3.13;2.83;;;;;;;;;;4933130;29;20235;-68
2022/10/28 03:26:37;;;;;;;2.30;2.20;;;;;;;;;;4932708;29;20218;-69
2022/10/28 03:29:04;;;;;;;3.13;2.70;;;;;;;;;;4931155;29;20227;-68
2022/10/28 03:31:31;;;;;;;7.23;2.73;;;;;;;;;;4931040;29;20239;-69
2022/10/28 03:33:58;;;;;;;3.23;2.73;;;;;;;;;;4931144;29;20203;-68
2022/10/28 03:36:25;;;;;;;3.20;2.90;;;;;;;;;;4932927;29;20344;-70
2022/10/28 03:38:52;;;;;;;2.87;2.67;;;;;;;;;;4932238;29;20222;-68
2022/10/28 03:41:19;;;;;;;3.40;3.10;;;;;;;;;;4931845;29;20212;-69
2022/10/28 03:43:48;;;;;;;7.93;3.17;;;;;;;;;;4931104;29;20219;-69
2022/10/28 03:46:15;;;;;;;7.30;2.83;;;;;;;;;;4932889;29;20212;-68
2022/10/28 03:48:42;;;;;;;2.80;2.60;;;;;;;;;;4932265;29;20212;-68
2022/10/28 03:51:09;;;;;;;3.83;2.83;;;;;;;;;;4930414;29;20232;-69
2022/10/28 03:53:36;;;;;;;3.30;3.00;;;;;;;;;;4932762;29;20249;-69
2022/10/28 03:56:03;;;;;;;4.50;2.90;;;;;;;;;;4932492;29;20255;-68
2022/10/28 03:58:31;;;;;;;4.15;3.03;;;;;;;;;;4930797;29;20253;-69
2022/10/28 04:00:59;;;;;;;3.70;2.90;;;;;;;;;;4922847;29;20337;-68
2022/10/28 04:03:26;;;;;;;3.50;3.08;;;;;;;;;;4932786;29;20208;-68
2022/10/28 04:05:53;;;;;;;3.80;2.57;;;;;;;;;;4931527;29;20579;-69
2022/10/28 04:08:21;;;;;;;3.97;2.90;;;;;;;;;;4931345;29;20575;-69
2022/10/28 04:10:48;;;;;;;3.87;3.00;;;;;;;;;;4933548;29;20238;-69
2022/10/28 04:13:16;;;;;;;3.13;2.92;;;;;;;;;;4933141;29;20214;-69
2022/10/28 04:15:43;;;;;;;15.43;5.27;;;;;;;;;;4932950;29;20678;-68
2022/10/28 04:18:12;;;;;;;5.20;3.70;;;;;;;;;;4931437;29;20446;-69
2022/10/28 04:20:39;;;;;;;5.50;3.93;;;;;;;;;;4932835;29;20235;-68
2022/10/28 04:23:06;;;;;;;8.37;4.30;;;;;;;;;;4932708;29;20218;-68
2022/10/28 04:25:33;;;;;;;4.77;3.17;;;;;;;;;;4933402;29;20218;-69
2022/10/28 04:28:00;;;;;;;18.07;4.30;;;;;;;;;;4933276;29;20211;-69
2022/10/28 04:30:27;;;;;;;4.17;2.87;;;;;;;;;;4932080;29;21267;-68
2022/10/28 04:32:54;;;;;;;5.50;2.90;;;;;;;;;;4932911;29;20659;-68
2022/10/28 04:35:23;;;;;;;3.55;3.15;;;;;;;;;;4932659;29;20204;-68
2022/10/28 04:37:50;;;;;;;4.90;3.10;;;;;;;;;;4917586;29;20759;-68
2022/10/28 04:40:17;;;;;;;2.80;2.57;;;;;;;;;;4932734;29;20203;-68
2022/10/28 04:42:44;;;;;;;4.43;2.33;;;;;;;;;;4932609;29;20211;-68
2022/10/28 04:45:11;;;;;;;3.00;2.80;;;;;;;;;;4932556;29;20215;-68
2022/10/28 04:47:38;;;;;;;2.93;2.70;;;;;;;;;;4932467;29;20199;-68
2022/10/28 04:50:06;;;;;;;4.00;2.63;;;;;;;;;;4932645;29;20550;-69
2022/10/28 04:52:34;;;;;;;2.73;2.53;;;;;;;;;;4932458;29;20940;-68
2022/10/28 04:55:01;;;;;;;3.90;2.50;;;;;;;;;;4913476;29;20224;-68
2022/10/28 04:57:28;;;;;;;4.30;2.55;;;;;;;;;;4927550;29;20240;-68
2022/10/28 04:59:55;;;;;;;2.70;2.50;;;;;;;;;;4932352;29;20238;-68
2022/10/28 05:02:23;;;;;;;6.30;2.97;;;;;;;;;;4932047;29;20610;-69
2022/10/28 05:04:50;;;;;;;3.03;2.70;;;;;;;;;;4932344;29;20603;-69
2022/10/28 05:07:17;;;;;;;3.47;2.60;;;;;;;;;;4932082;29;20212;-68
2022/10/28 05:09:45;;;;;;;4.88;2.92;;;;;;;;;;4929694;29;20243;-68
2022/10/28 05:12:12;;;;;;;9.95;3.40;;;;;;;;;;4913308;29;20255;-68
2022/10/28 05:14:39;;;;;;;7.73;3.17;;;;;;;;;;4923557;29;20571;-69
2022/10/28 05:17:06;;;;;;;3.50;3.20;;;;;;;;;;4925078;29;20219;-68
2022/10/28 05:19:33;;;;;;;7.40;3.27;;;;;;;;;;4931863;29;20218;-69
2022/10/28 05:22:00;;;;;;;3.60;2.60;;;;;;;;;;4929822;29;20219;-68
2022/10/28 05:24:27;;;;;;;3.10;2.80;;;;;;;;;;4931714;29;20208;-68
2022/10/28 05:26:56;;;;;;;3.43;3.00;;;;;;;;;;4931737;29;20215;-69
2022/10/28 05:29:23;;;;;;;6.87;2.20;;;;;;;;;;4931394;29;20217;-68
2022/10/28 05:31:50;;;;;;;2.60;2.40;;;;;;;;;;4930892;29;20234;-68
2022/10/28 05:34:17;;;;;;;2.90;2.33;;;;;;;;;;4931465;29;20321;-68
2022/10/28 05:36:44;;;;;;;2.33;2.20;;;;;;;;;;4930118;29;20199;-68
2022/10/28 05:39:12;;;;;;;2.80;2.60;;;;;;;;;;4931580;29;20207;-68
2022/10/28 05:41:39;;;;;;;5.27;2.77;;;;;;;;;;4931426;29;20211;-69
2022/10/28 05:44:08;;;;;;;5.10;2.93;;;;;;;;;;4931480;29;20216;-68
2022/10/28 05:46:35;;;;;;;6.37;2.80;;;;;;;;;;4930992;29;20207;-68
2022/10/28 05:49:03;;;;;;;6.27;2.50;;;;;;;;;;4912412;29;20660;-68
2022/10/28 05:51:30;;;;;;;3.60;2.93;;;;;;;;;;4919940;29;20225;-68
2022/10/28 05:53:57;;;;;;;4.30;2.60;;;;;;;;;;4930561;29;20234;-68
2022/10/28 05:56:24;;;;;;;3.30;2.83;;;;;;;;;;4929421;29;20357;-68
2022/10/28 05:58:51;;;;;;;9.20;2.97;;;;;;;;;;4930356;29;20208;-68
2022/10/28 06:01:19;;;;;;;6.50;3.00;;;;;;;;;;4931797;29;20200;-69
2022/10/28 06:03:46;;;;;;;3.17;2.90;;;;;;;;;;4931537;29;20215;-68
2022/10/28 06:06:13;;;;;;;3.10;2.80;;;;;;;;;;4924020;29;20220;-68
2022/10/28 06:08:40;;;;;;;2.80;2.60;;;;;;;;;;4930306;29;20212;-68
2022/10/28 06:11:07;;;;;;;6.53;3.80;;;;;;;;;;4931512;29;20224;-68
2022/10/28 06:13:34;;;;;;;2.93;2.73;;;;;;;;;;4931669;29;20860;-68
2022/10/28 06:16:01;;;;;;;3.30;2.90;;;;;;;;;;4931706;29;20212;-68
2022/10/28 06:18:30;;;;;;;4.27;3.27;;;;;;;;;;4933234;29;20215;-68
2022/10/28 06:20:58;;;;;;;3.50;2.53;;;;;;;;;;4935053;29;20211;-69
2022/10/28 06:23:25;;;;;;;8.43;2.83;;;;;;;;;;4926235;29;20219;-69
2022/10/28 06:25:52;;;;;;;8.27;3.30;;;;;;;;;;4936029;29;20211;-69
2022/10/28 06:28:19;;;;;;;5.07;2.73;;;;;;;;;;4922785;29;20216;-69
2022/10/28 06:30:46;;;;;;;3.03;2.83;;;;;;;;;;4916409;29;20228;-69
2022/10/28 06:33:14;;;;;;;9.63;4.20;;;;;;;;;;4916607;29;20216;-69
2022/10/28 06:35:42;;;;;;;6.90;4.23;;;;;;;;;;4925300;29;20225;-69
2022/10/28 06:38:09;;;;;;;6.37;5.57;;;;;;;;;;4935478;29;20222;-70
2022/10/28 06:40:36;;;;;;;7.03;5.00;;;;;;;;;;4935563;29;20207;-69
2022/10/28 06:43:05;;;;;;;8.43;5.37;;;;;;;;;;4935434;29;20216;-69
2022/10/28 06:45:33;;;;;;;6.10;4.83;;;;;;;;;;4935103;29;20561;-69
2022/10/28 06:48:01;;;;;;;9.63;5.40;;;;;;;;;;4935192;29;20223;-68
2022/10/28 06:50:29;;;;;;;8.90;4.20;;;;;;;;;;4934665;29;20223;-70
2022/10/28 06:52:58;;;;;;;3.78;3.42;;;;;;;;;;4934132;29;20849;-70
2022/10/28 06:55:25;;;;;;;5.50;3.57;;;;;;;;;;4934404;29;20268;-69
2022/10/28 06:57:52;;;;;;;9.80;4.03;;;;;;;;;;4934328;29;20235;-69
2022/10/28 07:00:19;;;;;;;3.17;2.90;;;;;;;;;;4925313;29;20215;-69
2022/10/28 07:02:50;;;;;;;4.97;3.70;;;;;;;;;;4915571;29;20219;-69
2022/10/28 07:05:17;;;;;;;3.33;3.03;;;;;;;;;;4921102;29;20219;-69
2022/10/28 07:07:44;;;;;;;9.27;3.53;;;;;;;;;;4934382;29;20222;-69
2022/10/28 07:10:13;;;;;;;4.90;4.37;;;;;;;;;;4934710;29;20216;-69
2022/10/28 07:12:40;;;;;;;9.83;5.57;;;;;;;;;;4933693;29;20242;-69
2022/10/28 07:15:07;;;;;;;6.82;4.55;;;;;;;;;;4918795;29;20212;-67
2022/10/28 07:17:35;;;;;;;5.87;4.10;;;;;;;;;;4926926;29;20216;-70
2022/10/28 07:20:02;;;;;;;5.10;4.60;;;;;;;;;;4933991;29;20218;-68
2022/10/28 07:22:29;;;;;;;6.43;4.67;;;;;;;;;;4933754;29;20207;-68
2022/10/28 07:24:56;;;;;;;6.43;4.43;;;;;;;;;;4934011;29;20215;-70
2022/10/28 07:27:24;;;;;;;8.17;5.47;;;;;;;;;;4933765;29;20220;-70
2022/10/28 07:29:51;;;;;;;11.93;4.80;;;;;;;;;;4933685;29;20682;-70
2022/10/28 07:32:18;;;;;;;5.80;4.40;;;;;;;;;;4927318;29;20243;-69
2022/10/28 07:34:46;;;;;;;4.43;4.03;;;;;;;;;;4916302;29;20216;-69
2022/10/28 07:37:13;;;;;;;6.30;3.27;;;;;;;;;;4933826;29;20860;-69
2022/10/28 07:39:40;;;;;;;5.70;3.72;;;;;;;;;;4929224;29;20219;-68
2022/10/28 07:42:07;;;;;;;4.22;3.22;;;;;;;;;;4932977;29;20211;-68
2022/10/28 07:44:35;;;;;;;8.93;3.63;;;;;;;;;;4927661;29;20216;-71
2022/10/28 07:47:02;;;;;;;9.90;3.93;;;;;;;;;;4914762;29;20227;-70
2022/10/28 07:49:30;;;;;;;10.00;4.20;;;;;;;;;;4926171;29;20290;-70
2022/10/28 07:51:57;;;;;;;6.18;3.70;;;;;;;;;;4933363;29;20280;-70
2022/10/28 07:54:24;;;;;;;8.80;4.03;;;;;;;;;;4933086;29;20236;-69
2022/10/28 07:56:51;;;;;;;5.93;3.80;;;;;;;;;;4931515;29;20231;-69
2022/10/28 07:59:19;;;;;;;8.85;4.30;;;;;;;;;;4932929;29;20214;-68
2022/10/28 08:01:48;;;;;;;3.60;3.30;;;;;;;;;;4933216;29;20258;-69
2022/10/28 08:04:15;;;;;;;8.60;3.50;;;;;;;;;;4932646;29;20212;-69
2022/10/28 08:06:43;;;;;;;7.10;4.30;;;;;;;;;;4931977;29;20220;-69
2022/10/28 08:09:10;;;;;;;4.87;3.43;;;;;;;;;;4932666;29;20239;-69
2022/10/28 08:11:37;;;;;;;4.60;3.47;;;;;;;;;;4913937;29;20252;-70
2022/10/28 08:14:04;;;;;;;4.30;3.53;;;;;;;;;;4918633;29;20204;-69
2022/10/28 08:16:31;;;;;;;8.43;4.53;;;;;;;;;;4926071;29;20836;-69
2022/10/28 08:19:00;;;;;;;10.93;4.05;;;;;;;;;;4932660;29;20584;-69
2022/10/28 08:21:27;;;;;;;12.68;4.65;;;;;;;;;;4932805;29;20207;-69
2022/10/28 08:23:54;;;;;;;5.22;4.03;;;;;;;;;;4932892;29;20222;-69
2022/10/28 08:26:21;;;;;;;11.07;4.70;;;;;;;;;;4932822;29;20212;-69
2022/10/28 08:28:49;;;;;;;6.65;3.33;;;;;;;;;;4932830;29;20215;-69
2022/10/28 08:31:16;;;;;;;3.50;3.20;;;;;;;;;;4932263;29;20236;-69
2022/10/28 08:33:45;;;;;;;4.18;3.40;;;;;;;;;;4914075;29;20223;-69
2022/10/28 08:36:14;;;;;;;4.57;3.38;;;;;;;;;;4926393;29;20223;-69
2022/10/28 08:38:43;;;;;;;9.30;3.72;;;;;;;;;;4931991;29;20854;-70
2022/10/28 08:41:16;;;;;;;8.52;4.75;;;;;;;;;;4931930;29;20218;-69
2022/10/28 08:43:50;;;;;;;23.80;6.95;;;;;;;;;;4932896;29;20204;-67
2022/10/28 08:46:22;;;;;;;10.15;4.68;;;;;;;;;;4932473;29;20211;-65
2022/10/28 08:48:49;;;;;;;7.40;4.30;;;;;;;;;;4932750;29;20203;-65
2022/10/28 08:51:21;;;;;;;5.60;3.88;;;;;;;;;;4932762;29;20208;-67
2022/10/28 08:53:51;;;;;;;7.10;3.70;;;;;;;;;;4918433;29;20235;-68
2022/10/28 08:56:24;;;;;;;5.05;3.42;;;;;;;;;;4932353;29;20239;-64
2022/10/28 08:58:53;;;;;;;5.60;3.45;;;;;;;;;;4932785;29;20267;-65
2022/10/28 09:01:25;;;;;;;4.95;3.88;;;;;;;;;;4932684;29;20859;-65
2022/10/28 09:03:53;;;;;;;6.78;3.83;;;;;;;;;;4932389;29;20208;-68
2022/10/28 09:06:21;;;;;;;6.55;4.47;;;;;;;;;;4932507;29;20243;-65
2022/10/28 09:08:51;;;;;;;7.20;4.47;;;;;;;;;;4932268;29;20208;-67
2022/10/28 09:11:31;;;;;;;9.10;4.05;;;;;;;;;;4932664;29;20271;-68
2022/10/28 09:14:08;;;;;;;4.53;3.50;;;;;;;;;;4931714;29;20215;-66
2022/10/28 09:16:40;;;;;;;4.95;3.95;;;;;;;;;;4927971;29;20219;-68
2022/10/28 09:19:23;;;;;;;6.60;3.42;;;;;;;;;;4930142;29;20207;-68
2022/10/28 09:21:58;;;;;;;3.60;3.30;;;;;;;;;;4931757;29;20905;-68
2022/10/28 09:24:39;;;;;;;4.85;3.20;;;;;;;;;;4931933;29;20709;-68
2022/10/28 09:27:10;;;;;;;4.93;3.72;;;;;;;;;;4931830;29;20710;-68
2022/10/28 09:29:42;;;;;;;5.60;3.40;;;;;;;;;;4931895;29;20690;-68
2022/10/28 09:32:14;;;;;;;3.58;3.22;;;;;;;;;;4931819;29;20238;-68
2022/10/28 09:34:44;;;;;;;5.97;3.47;;;;;;;;;;4931456;29;20234;-69
2022/10/28 09:37:14;;;;;;;4.30;3.05;;;;;;;;;;4931415;29;20215;-69
2022/10/28 09:39:43;;;;;;;3.10;2.90;;;;;;;;;;4931820;29;20216;-68
2022/10/28 09:42:13;;;;;;;4.55;2.42;;;;;;;;;;4931518;29;20684;-68
2022/10/28 09:44:42;;;;;;;3.05;2.50;;;;;;;;;;4931204;29;20224;-68
2022/10/28 09:47:14;;;;;;;3.40;2.65;;;;;;;;;;4931357;29;20215;-69
2022/10/28 09:49:41;;;;;;;3.35;2.85;;;;;;;;;;4931335;29;20211;-68
2022/10/28 09:52:12;;;;;;;2.70;2.60;;;;;;;;;;4931000;29;20710;-68
2022/10/28 09:54:42;;;;;;;3.15;2.92;;;;;;;;;;4930892;29;20237;-68
2022/10/28 09:57:10;;;;;;;3.00;2.75;;;;;;;;;;4931092;29;20324;-68
2022/10/28 09:59:37;;;;;;;3.42;2.75;;;;;;;;;;4931038;29;20217;-68
2022/10/28 10:02:05;;;;;;;7.15;2.80;;;;;;;;;;4931151;29;20207;-69
2022/10/28 10:04:34;;;;;;;3.58;2.67;;;;;;;;;;4931186;29;20535;-69
2022/10/28 10:07:04;;;;;;;2.28;1.92;;;;;;;;;;4930885;29;20219;-68
2022/10/28 10:09:32;;;;;;;3.42;2.28;;;;;;;;;;4931149;29;20207;-68
2022/10/28 10:12:03;;;;;;;4.43;2.50;;;;;;;;;;4930894;29;20353;-69
2022/10/28 10:14:31;;;;;;;5.13;2.42;;;;;;;;;;4931037;29;20592;-68
2022/10/28 10:17:00;;;;;;;2.67;2.47;;;;;;;;;;4930798;29;20223;-68
2022/10/28 10:19:27;;;;;;;2.60;2.00;;;;;;;;;;4930741;29;20322;-69
2022/10/28 10:21:55;;;;;;;2.15;1.90;;;;;;;;;;4930956;29;20212;-68
2022/10/28 10:24:26;;;;;;;4.40;2.40;;;;;;;;;;4930951;29;20243;-68
2022/10/28 10:26:53;;;;;;;2.38;2.28;;;;;;;;;;4930710;29;20215;-68
2022/10/28 10:29:23;;;;;;;8.60;2.63;;;;;;;;;;4930874;29;20211;-69
2022/10/28 10:32:03;;;;;;;3.00;1.88;;;;;;;;;;4930827;29;20212;-68
2022/10/28 10:34:31;;;;;;;2.95;1.98;;;;;;;;;;4930549;29;20212;-68
2022/10/28 10:36:58;;;;;;;5.05;1.90;;;;;;;;;;4930650;29;20219;-68
2022/10/28 10:39:29;;;;;;;3.75;1.92;;;;;;;;;;4930529;29;20212;-69
2022/10/28 10:41:56;;;;;;;4.10;2.63;;;;;;;;;;4930647;29;20212;-68
2022/10/28 10:44:35;;;;;;;4.68;2.33;;;;;;;;;;4930747;29;20215;-68
2022/10/28 10:47:19;;;;;;;4.75;2.42;;;;;;;;;;4930744;29;20215;-69
2022/10/28 10:49:48;;;;;;;2.67;1.95;;;;;;;;;;4929679;29;20682;-69
2022/10/28 10:52:18;;;;;;;3.03;2.28;;;;;;;;;;4929654;29;20228;-68
2022/10/28 10:54:47;;;;;;;2.13;2.03;;;;;;;;;;4929865;29;20239;-68
2022/10/28 10:57:17;;;;;;;3.95;1.92;;;;;;;;;;4929833;29;20263;-68
2022/10/28 10:59:47;;;;;;;2.38;2.15;;;;;;;;;;4929942;29;20211;-69
2022/10/28 11:02:22;;;;;;;5.88;2.17;;;;;;;;;;4929957;29;20208;-68
2022/10/28 11:04:51;;;;;;;3.45;2.30;;;;;;;;;;4932140;29;20208;-69
2022/10/28 11:07:18;;;;;;;1.85;1.75;;;;;;;;;;4933306;29;20215;-68
2022/10/28 11:09:48;;;;;;;1.98;1.88;;;;;;;;;;4933313;29;20223;-68
2022/10/28 11:12:16;;;;;;;5.50;1.75;;;;;;;;;;4933262;29;20594;-68
2022/10/28 11:14:55;;;;;;;4.25;2.13;;;;;;;;;;4933326;29;20726;-68
2022/10/28 11:17:24;;;;;;;6.07;1.90;;;;;;;;;;4933371;29;20468;-68
2022/10/28 11:19:54;;;;;;;2.67;1.83;;;;;;;;;;4933068;29;20270;-69
2022/10/28 11:22:26;;;;;;;3.90;2.17;;;;;;;;;;4932644;29;20208;-68
2022/10/28 11:25:00;;;;;;;3.00;1.85;;;;;;;;;;4933130;29;20219;-69
2022/10/28 11:27:44;;;;;;;4.78;2.22;;;;;;;;;;4933122;29;20218;-69
2022/10/28 11:30:14;;;;;;;2.72;1.80;;;;;;;;;;4933180;29;20222;-69
2022/10/28 11:32:48;;;;;;;2.35;2.15;;;;;;;;;;4932683;29;20239;-68
2022/10/28 11:35:33;;;;;;;4.05;2.20;;;;;;;;;;4932832;29;20219;-68
2022/10/28 11:38:06;;;;;;;1.75;1.58;;;;;;;;;;4932734;29;20211;-68
2022/10/28 11:40:35;;;;;;;7.82;2.20;;;;;;;;;;4932631;29;20238;-68
2022/10/28 11:43:09;;;;;;;3.25;1.80;;;;;;;;;;4932948;29;20207;-68
2022/10/28 11:45:40;;;;;;;3.40;2.00;;;;;;;;;;4932611;29;20489;-68
2022/10/28 11:48:15;;;;;;;3.25;2.05;;;;;;;;;;4932280;29;20704;-68
2022/10/28 11:50:48;;;;;;;2.42;1.70;;;;;;;;;;4932655;29;20787;-69
2022/10/28 11:53:35;;;;;;;2.08;1.85;;;;;;;;;;4932189;29;20235;-68
2022/10/28 11:56:05;;;;;;;2.00;1.90;;;;;;;;;;4932525;29;20593;-68
2022/10/28 11:58:37;;;;;;;4.10;2.28;;;;;;;;;;4932555;29;20220;-68
2022/10/28 12:01:10;;;;;;;1.90;1.55;;;;;;;;;;4932591;29;20435;-68
2022/10/28 12:03:47;;;;;;;3.47;1.77;;;;;;;;;;4932086;29;20220;-68
2022/10/28 12:06:18;;;;;;;6.80;2.38;;;;;;;;;;4932303;29;20600;-68
2022/10/28 12:08:51;;;;;;;5.80;1.88;;;;;;;;;;4931981;29;20221;-68
2022/10/28 12:11:25;;;;;;;2.30;1.90;;;;;;;;;;4931970;29;20321;-68
2022/10/28 12:13:57;;;;;;;7.25;2.33;;;;;;;;;;4932107;29;20227;-72
2022/10/28 12:16:31;;;;;;;7.05;1.75;;;;;;;;;;4931459;29;20234;-67
2022/10/28 12:19:00;;;;;;;5.00;1.92;;;;;;;;;;4932310;29;20591;-70
2022/10/28 12:21:30;;;;;;;2.58;1.73;;;;;;;;;;4932733;29;20223;-69
2022/10/28 12:23:58;;;;;;;3.33;2.17;;;;;;;;;;4931889;29;20725;-68
2022/10/28 12:26:32;;;;;;;2.05;1.85;;;;;;;;;;4932609;29;20444;-68
2022/10/28 12:29:01;;;;;;;4.60;1.63;;;;;;;;;;4932192;29;20210;-68
2022/10/28 12:31:32;;;;;;;1.52;1.40;;;;;;;;;;4932382;29;20764;-69
2022/10/28 12:34:00;;;;;;;6.05;2.17;;;;;;;;;;4932299;29;20258;-67
2022/10/28 12:36:32;;;;;;;5.45;1.95;;;;;;;;;;4932368;29;20234;-67
2022/10/28 12:39:01;;;;;;;3.38;1.65;;;;;;;;;;4931954;29;20212;-68
2022/10/28 12:41:31;;;;;;;2.10;1.75;;;;;;;;;;4929935;29;20254;-68
2022/10/28 12:44:02;;;;;;;4.97;1.83;;;;;;;;;;4930717;29;20324;-67
2022/10/28 12:46:38;;;;;;;3.45;1.60;;;;;;;;;;4932576;29;20208;-68
2022/10/28 12:49:10;;;;;;;3.47;1.92;;;;;;;;;;4933260;29;20218;-68
2022/10/28 12:51:39;;;;;;;2.92;1.60;;;;;;;;;;4932963;29;20212;-67
2022/10/28 12:54:11;;;;;;;3.60;1.58;;;;;;;;;;4932392;29;20231;-68
2022/10/28 12:56:40;;;;;;;8.77;1.88;;;;;;;;;;4932765;29;20247;-68
2022/10/28 12:59:12;;;;;;;2.15;1.75;;;;;;;;;;4933070;29;20567;-68
2022/10/28 13:01:41;;;;;;;2.95;1.60;;;;;;;;;;4932198;29;20212;-68
2022/10/28 13:04:12;;;;;;;3.85;1.83;;;;;;;;;;4933013;29;20220;-68
2022/10/28 13:07:01;;;;;;;2.95;2.03;;;;;;;;;;4932604;29;20212;-68
2022/10/28 13:09:37;;;;;;;3.03;1.90;;;;;;;;;;4932495;29;20219;-68
2022/10/28 13:12:16;;;;;;;3.33;1.33;;;;;;;;;;4932768;29;20211;-68
2022/10/28 13:15:01;;;;;;;2.83;1.65;;;;;;;;;;4932606;29;20223;-68
2022/10/28 13:17:35;;;;;;;2.08;1.73;;;;;;;;;;4932583;29;20218;-68
2022/10/28 13:20:11;;;;;;;1.80;1.70;;;;;;;;;;4932468;29;20203;-68
2022/10/28 13:22:59;;;;;;;4.90;1.63;;;;;;;;;;4931968;29;20215;-68
2022/10/28 13:25:38;;;;;;;2.53;1.52;;;;;;;;;;4927989;29;20219;-68
2022/10/28 13:28:06;;;;;;;2.03;1.83;;;;;;;;;;4932093;29;20231;-68
2022/10/28 13:30:34;;;;;;;2.78;1.77;;;;;;;;;;4932447;29;20236;-67
2022/10/28 13:33:04;;;;;;;3.78;1.55;;;;;;;;;;4932121;29;20323;-68
2022/10/28 13:35:31;;;;;;;3.83;1.80;;;;;;;;;;4932209;29;20216;-67
2022/10/28 13:37:59;;;;;;;4.75;2.05;;;;;;;;;;4931930;29;20211;-68
2022/10/28 13:40:41;;;;;;;3.72;1.45;;;;;;;;;;4932429;29;20219;-68
2022/10/28 13:43:17;;;;;;;5.03;1.35;;;;;;;;;;4931988;29;20714;-68
2022/10/28 13:45:47;;;;;;;3.08;1.33;;;;;;;;;;4932189;29;20219;-69
2022/10/28 13:48:32;;;;;;;1.75;1.65;;;;;;;;;;4932267;29;20211;-68
2022/10/28 13:51:14;;;;;;;4.90;1.65;;;;;;;;;;4931272;29;20211;-68
2022/10/28 13:53:54;;;;;;;3.50;1.85;;;;;;;;;;4931871;29;20699;-68
2022/10/28 13:56:28;;;;;;;2.97;1.77;;;;;;;;;;4931715;29;20262;-67
2022/10/28 13:58:57;;;;;;;1.85;1.50;;;;;;;;;;4931754;29;20215;-68
2022/10/28 14:01:51;;;;;;;1.85;1.55;;;;;;;;;;4926230;29;20230;-68
2022/10/28 14:04:29;;;;;;;3.35;1.70;;;;;;;;;;4931089;29;20200;-68
2022/10/28 14:07:01;;;;;;;4.70;1.73;;;;;;;;;;4930308;29;20215;-68
2022/10/28 14:09:31;;;;;;;1.60;1.50;;;;;;;;;;4927209;29;20698;-68
2022/10/28 14:12:04;;;;;;;4.07;1.30;;;;;;;;;;4928694;29;20302;-68
2022/10/28 14:14:32;;;;;;;6.18;1.42;;;;;;;;;;4930977;29;20318;-71
2022/10/28 14:16:59;;;;;;;2.28;1.85;;;;;;;;;;4930674;29;20593;-68
2022/10/28 14:19:26;;;;;;;3.50;1.52;;;;;;;;;;4929057;29;20204;-68
2022/10/28 14:21:57;;;;;;;3.75;1.80;;;;;;;;;;4931800;29;20219;-68
2022/10/28 14:24:32;;;;;;;1.55;1.30;;;;;;;;;;4930826;29;20206;-68
2022/10/28 14:27:30;;;;;;;1.63;1.50;;;;;;;;;;4930594;29;20588;-68
2022/10/28 14:30:27;;;;;;;2.25;1.77;;;;;;;;;;4929049;29;20212;-68
2022/10/28 14:32:59;;;;;;;3.47;1.58;;;;;;;;;;4882845;29;20209;-68
2022/10/28 14:35:29;;;;;;;1.90;1.75;;;;;;;;;;4923748;29;20227;-68
2022/10/28 14:38:23;;;;;;;2.30;1.52;;;;;;;;;;4931455;29;20211;-67
2022/10/28 14:40:54;;;;;;;1.80;1.42;;;;;;;;;;4935630;29;20207;-69
2022/10/28 14:43:40;;;;;;;1.90;1.20;;;;;;;;;;4934993;29;20204;-69
2022/10/28 14:46:17;;;;;;;4.20;1.42;;;;;;;;;;4934403;29;20675;-67
2022/10/28 14:48:51;;;;;;;1.38;1.27;;;;;;;;;;4933855;29;20215;-69
2022/10/28 14:51:20;;;;;;;1.63;1.48;;;;;;;;;;4934786;29;20219;-69
2022/10/28 14:53:48;;;;;;;1.67;1.23;;;;;;;;;;4928912;29;20240;-69
2022/10/28 14:56:21;;;;;;;1.85;1.33;;;;;;;;;;4934077;29;20252;-69
2022/10/28 14:58:49;;;;;;;1.35;1.30;;;;;;;;;;4925673;29;20207;-70
2022/10/28 15:01:36;;;;;;;2.42;1.33;;;;;;;;;;4928864;29;20211;-70